createdAt,value
2019-05-22T00:01:37.394Z,27.17
2019-05-22T00:04:18.220Z,30.45
2019-05-22T00:06:47.674Z,26.77
2019-05-22T00:09:27.813Z,27.87
2019-05-22T00:11:56.191Z,32.60
2019-05-22T00:14:25.818Z,31.33
2019-05-22T00:16:55.691Z,35.45
2019-05-22T00:19:23.657Z,30.35
2019-05-22T00:21:59.988Z,34.58
2019-05-22T00:24:28.904Z,28.70
2019-05-22T00:26:57.629Z,30.60
2019-05-22T00:29:26.025Z,29.45
2019-05-22T00:31:55.819Z,33.60
2019-05-22T00:34:25.744Z,31.62
2019-05-22T00:36:54.377Z,38.50
2019-05-22T00:39:23.855Z,34.33
2019-05-22T00:41:51.812Z,38.02
2019-05-22T00:44:20.463Z,39.23
2019-05-22T00:46:50.790Z,39.50
2019-05-22T00:49:20.570Z,38.00
2019-05-22T00:52:03.350Z,43.45
2019-05-22T00:54:51.376Z,50.43
2019-05-22T00:57:27.068Z,45.70
2019-05-22T00:59:59.102Z,48.38
2019-05-22T01:02:27.866Z,44.53
2019-05-22T01:04:57.110Z,52.05
2019-05-22T01:07:29.617Z,46.18
2019-05-22T01:09:57.954Z,49.83
2019-05-22T01:12:28.629Z,39.85
2019-05-22T01:15:00.520Z,47.00
2019-05-22T01:17:32.856Z,39.42
2019-05-22T01:20:02.546Z,39.30
2019-05-22T01:22:32.553Z,45.67
2019-05-22T01:25:00.718Z,41.98
2019-05-22T01:27:29.524Z,44.18
2019-05-22T01:29:57.513Z,43.35
2019-05-22T01:32:32.951Z,42.73
2019-05-22T01:35:00.769Z,43.83
2019-05-22T01:37:30.327Z,41.08
2019-05-22T01:40:04.025Z,45.63
2019-05-22T01:42:40.228Z,41.40
2019-05-22T01:45:10.787Z,35.10
2019-05-22T01:47:48.655Z,37.65
2019-05-22T01:50:26.041Z,39.95
2019-05-22T01:52:55.775Z,41.70
2019-05-22T01:55:24.338Z,44.25
2019-05-22T01:57:52.623Z,41.77
2019-05-22T02:00:21.962Z,43.70
2019-05-22T02:02:51.729Z,42.27
2019-05-22T02:05:20.479Z,42.78
2019-05-22T02:07:48.045Z,43.08
2019-05-22T02:10:23.989Z,41.18
2019-05-22T02:12:56.719Z,40.35
2019-05-22T02:15:24.799Z,43.00
2019-05-22T02:17:52.765Z,39.58
2019-05-22T02:20:20.180Z,38.95
2019-05-22T02:22:49.723Z,40.50
2019-05-22T02:25:17.714Z,39.48
2019-05-22T02:27:45.549Z,38.58
2019-05-22T02:30:16.223Z,38.98
2019-05-22T02:32:45.569Z,38.05
2019-05-22T02:35:13.037Z,31.15
2019-05-22T02:37:43.308Z,35.20
2019-05-22T02:40:21.407Z,37.40
2019-05-22T02:42:50.540Z,43.38
2019-05-22T02:45:19.775Z,37.33
2019-05-22T02:47:48.221Z,34.65
2019-05-22T02:50:17.812Z,38.02
2019-05-22T02:52:46.176Z,35.80
2019-05-22T02:55:13.813Z,38.58
2019-05-22T02:57:43.910Z,39.13
2019-05-22T03:00:14.202Z,44.40
2019-05-22T03:02:51.521Z,39.95
2019-05-22T03:05:20.649Z,40.60
2019-05-22T03:07:49.000Z,40.05
2019-05-22T03:10:19.700Z,43.58
2019-05-22T03:12:50.044Z,43.17
2019-05-22T03:15:19.627Z,47.23
2019-05-22T03:17:53.168Z,48.48
2019-05-22T03:20:23.093Z,50.33
2019-05-22T03:23:26.889Z,52.08
2019-05-22T03:25:54.454Z,46.18
2019-05-22T03:28:22.710Z,51.45
2019-05-22T03:30:50.356Z,50.73
2019-05-22T03:33:17.879Z,49.45
2019-05-22T03:35:48.133Z,54.53
2019-05-22T03:38:17.633Z,49.90
2019-05-22T03:40:45.914Z,50.60
2019-05-22T03:43:20.560Z,45.95
2019-05-22T03:45:48.588Z,51.60
2019-05-22T03:48:16.486Z,48.95
2019-05-22T03:50:44.071Z,50.98
2019-05-22T03:53:17.626Z,47.45
2019-05-22T03:55:45.715Z,45.95
2019-05-22T03:58:13.897Z,50.30
2019-05-22T04:00:43.580Z,48.23
2019-05-22T04:03:10.739Z,52.27
2019-05-22T04:05:38.807Z,48.45
2019-05-22T04:08:07.776Z,47.50
2019-05-22T04:10:46.159Z,50.60
2019-05-22T04:13:13.617Z,54.53
2019-05-22T04:15:41.641Z,49.42
2019-05-22T04:18:12.439Z,46.25
2019-05-22T04:20:40.408Z,41.48
2019-05-22T04:23:09.143Z,47.15
2019-05-22T04:25:37.427Z,45.30
2019-05-22T04:28:05.432Z,41.23
2019-05-22T04:30:33.689Z,45.48
2019-05-22T04:33:01.982Z,46.95
2019-05-22T04:35:31.137Z,43.63
2019-05-22T04:37:58.957Z,40.08
2019-05-22T04:40:46.780Z,38.90
2019-05-22T04:43:19.887Z,41.18
2019-05-22T04:45:46.133Z,42.95
2019-05-22T04:48:13.481Z,48.58
2019-05-22T04:50:41.576Z,51.83
2019-05-22T04:53:09.456Z,37.53
2019-05-22T04:55:36.891Z,43.45
2019-05-22T04:58:06.149Z,43.15
2019-05-22T05:00:35.028Z,41.75
2019-05-22T05:03:04.727Z,37.35
2019-05-22T05:05:36.682Z,39.88
2019-05-22T05:08:04.248Z,40.92
2019-05-22T05:10:32.335Z,33.48
2019-05-22T05:12:59.926Z,37.15
2019-05-22T05:15:27.442Z,37.38
2019-05-22T05:17:54.796Z,36.75
2019-05-22T05:20:22.995Z,37.67
2019-05-22T05:22:50.781Z,39.88
2019-05-22T05:25:19.296Z,40.92
2019-05-22T05:27:47.040Z,40.95
2019-05-22T05:30:16.600Z,36.53
2019-05-22T05:32:44.832Z,37.13
2019-05-22T05:35:13.885Z,37.83
2019-05-22T05:37:41.698Z,34.33
2019-05-22T05:40:26.245Z,34.08
2019-05-22T05:42:53.794Z,34.95
2019-05-22T05:45:21.816Z,35.50
2019-05-22T05:47:50.577Z,35.15
2019-05-22T05:50:19.970Z,35.17
2019-05-22T05:52:48.805Z,32.33
2019-05-22T05:55:17.136Z,33.85
2019-05-22T05:58:22.455Z,35.70
2019-05-22T06:00:54.357Z,32.95
2019-05-22T06:03:36.935Z,33.60
2019-05-22T06:07:00.893Z,32.35
2019-05-22T06:09:28.646Z,34.05
2019-05-22T06:12:00.811Z,36.03
2019-05-22T06:14:30.541Z,35.33
2019-05-22T06:17:50.264Z,35.50
2019-05-22T06:20:18.258Z,32.50
2019-05-22T06:23:27.083Z,34.05
2019-05-22T06:25:55.246Z,34.43
2019-05-22T06:28:23.027Z,39.60
2019-05-22T06:30:54.439Z,30.37
2019-05-22T06:33:30.330Z,36.53
2019-05-22T06:36:00.324Z,35.05
2019-05-22T06:39:11.851Z,30.68
2019-05-22T06:41:41.262Z,29.80
2019-05-22T06:44:40.929Z,30.10
2019-05-22T06:47:17.625Z,30.08
2019-05-22T06:49:47.041Z,26.93
2019-05-22T06:52:15.109Z,22.82
2019-05-22T06:54:43.110Z,28.60
2019-05-22T06:57:19.867Z,24.57
2019-05-22T06:59:49.202Z,26.17
2019-05-22T07:02:18.846Z,25.08
2019-05-22T07:04:46.577Z,25.45
2019-05-22T07:07:17.007Z,24.35
2019-05-22T07:09:45.257Z,27.67
2019-05-22T07:12:15.059Z,23.32
2019-05-22T07:15:17.593Z,24.00
2019-05-22T07:17:46.154Z,24.63
2019-05-22T07:20:14.926Z,24.85
2019-05-22T07:22:43.163Z,23.42
2019-05-22T07:25:13.699Z,24.25
2019-05-22T07:27:41.623Z,26.85
2019-05-22T07:30:10.017Z,26.48
2019-05-22T07:32:37.464Z,26.97
2019-05-22T07:35:05.541Z,31.93
2019-05-22T07:37:37.788Z,29.48
2019-05-22T07:40:05.493Z,25.43
2019-05-22T07:42:32.861Z,27.67
2019-05-22T07:45:00.346Z,25.25
2019-05-22T07:47:27.953Z,26.37
2019-05-22T07:49:55.788Z,22.40
2019-05-22T07:52:23.475Z,23.83
2019-05-22T07:54:52.435Z,23.02
2019-05-22T07:57:21.875Z,24.02
2019-05-22T07:59:49.563Z,25.10
2019-05-22T08:02:17.426Z,24.43
2019-05-22T08:04:45.157Z,24.07
2019-05-22T08:07:14.873Z,22.80
2019-05-22T08:09:42.637Z,23.35
2019-05-22T08:12:12.290Z,22.90
2019-05-22T08:14:39.862Z,24.12
2019-05-22T08:17:10.412Z,21.93
2019-05-22T08:19:37.795Z,23.20
2019-05-22T08:22:07.690Z,24.70
2019-05-22T08:24:35.133Z,24.02
2019-05-22T08:27:04.491Z,23.40
2019-05-22T08:29:32.203Z,23.60
2019-05-22T08:31:59.934Z,22.42
2019-05-22T08:34:27.426Z,20.70
2019-05-22T08:36:55.186Z,21.07
2019-05-22T08:39:23.999Z,20.30
2019-05-22T08:41:52.718Z,19.17
2019-05-22T08:44:20.186Z,24.30
2019-05-22T08:46:47.782Z,18.90
2019-05-22T08:49:15.586Z,17.40
2019-05-22T08:51:43.135Z,20.08
2019-05-22T08:54:12.538Z,15.30
2019-05-22T08:56:45.513Z,18.95
2019-05-22T08:59:19.415Z,20.70
2019-05-22T09:01:42.564Z,22.20
2019-05-22T09:04:10.265Z,22.02
2019-05-22T09:06:37.914Z,21.48
2019-05-22T09:09:05.847Z,23.15
2019-05-22T09:11:33.226Z,21.68
2019-05-22T09:14:01.338Z,22.93
2019-05-22T09:16:28.825Z,21.35
2019-05-22T09:18:56.731Z,25.57
2019-05-22T09:21:24.801Z,24.80
2019-05-22T09:23:53.480Z,23.73
2019-05-22T09:26:22.461Z,23.22
2019-05-22T09:28:49.876Z,21.62
2019-05-22T09:31:17.860Z,21.15
2019-05-22T09:33:46.200Z,29.15
2019-05-22T09:36:14.476Z,23.62
2019-05-22T09:38:42.633Z,28.20
2019-05-22T09:41:10.045Z,28.17
2019-05-22T09:43:37.588Z,27.42
2019-05-22T09:46:06.207Z,26.52
2019-05-22T09:48:34.684Z,26.55
2019-05-22T09:51:02.537Z,26.20
2019-05-22T09:53:30.707Z,26.33
2019-05-22T09:55:58.951Z,27.37
2019-05-22T09:58:27.088Z,23.83
2019-05-22T10:00:55.332Z,24.20
2019-05-22T10:03:23.664Z,23.92
2019-05-22T10:05:51.853Z,25.65
2019-05-22T10:08:19.396Z,22.67
2019-05-22T10:10:47.037Z,23.75
2019-05-22T10:13:15.291Z,22.25
2019-05-22T10:15:43.023Z,25.25
2019-05-22T10:18:11.328Z,24.40
2019-05-22T10:20:38.857Z,26.00
2019-05-22T10:23:15.712Z,24.63
2019-05-22T10:25:37.017Z,24.23
2019-05-22T10:28:05.487Z,24.55
2019-05-22T10:30:33.308Z,26.42
2019-05-22T10:33:00.781Z,26.45
2019-05-22T10:35:31.015Z,23.70
2019-05-22T10:37:58.831Z,26.33
2019-05-22T10:40:27.599Z,30.02
2019-05-22T10:42:55.881Z,28.75
2019-05-22T10:45:23.737Z,25.40
2019-05-22T10:47:51.797Z,24.10
2019-05-22T10:50:19.877Z,26.73
2019-05-22T10:52:53.407Z,26.05
2019-05-22T10:55:18.428Z,23.65
2019-05-22T10:57:46.136Z,26.15
2019-05-22T11:00:15.510Z,25.27
2019-05-22T11:02:43.422Z,23.80
2019-05-22T11:05:11.635Z,22.25
2019-05-22T11:07:40.034Z,23.60
2019-05-22T11:10:07.866Z,25.43
2019-05-22T11:12:36.058Z,23.95
2019-05-22T11:15:04.383Z,24.87
2019-05-22T11:17:32.033Z,16.87
2019-05-22T11:20:00.100Z,16.10
2019-05-22T11:22:29.219Z,17.60
2019-05-22T11:24:57.286Z,17.27
2019-05-22T11:27:25.244Z,13.80
2019-05-22T11:29:52.938Z,15.93
2019-05-22T11:32:21.506Z,17.60
2019-05-22T11:34:48.988Z,15.83
2019-05-22T11:37:18.710Z,16.37
2019-05-22T11:39:47.658Z,15.00
2019-05-22T11:42:15.785Z,14.68
2019-05-22T11:44:43.228Z,15.03
2019-05-22T11:47:14.346Z,15.63
2019-05-22T11:49:42.605Z,17.60
2019-05-22T11:52:12.921Z,15.45
2019-05-22T11:54:40.510Z,15.83
2019-05-22T11:57:07.896Z,32.90
2019-05-22T11:59:36.348Z,14.83
2019-05-22T12:02:05.246Z,14.28
2019-05-22T12:04:47.187Z,14.10
2019-05-22T12:07:04.894Z,12.88
2019-05-22T12:09:32.561Z,14.80
2019-05-22T12:12:00.197Z,14.18
2019-05-22T12:14:28.233Z,14.15
2019-05-22T12:16:55.837Z,15.55
2019-05-22T12:19:26.020Z,12.40
2019-05-22T12:21:53.542Z,12.98
2019-05-22T12:24:28.552Z,14.93
2019-05-22T12:26:51.464Z,10.25
2019-05-22T12:29:18.987Z,10.40
2019-05-22T12:31:47.165Z,10.98
2019-05-22T12:34:14.739Z,11.45
2019-05-22T12:36:43.560Z,10.90
2019-05-22T12:39:11.793Z,9.13
2019-05-22T12:41:39.914Z,9.65
2019-05-22T12:44:07.498Z,9.75
2019-05-22T12:46:36.216Z,10.68
2019-05-22T12:49:08.575Z,11.08
2019-05-22T12:51:34.445Z,9.98
2019-05-22T12:54:02.588Z,14.50
2019-05-22T12:56:31.131Z,12.65
2019-05-22T12:58:58.914Z,10.75
2019-05-22T13:01:28.776Z,12.15
2019-05-22T13:03:57.636Z,10.95
2019-05-22T13:06:25.999Z,12.68
2019-05-22T13:08:53.403Z,10.45
2019-05-22T13:11:21.676Z,9.83
2019-05-22T13:13:49.389Z,10.20
2019-05-22T13:16:17.267Z,9.03
2019-05-22T13:18:45.076Z,10.18
2019-05-22T13:21:17.764Z,11.40
2019-05-22T13:23:46.385Z,8.55
2019-05-22T13:26:15.212Z,11.50
2019-05-22T13:28:44.724Z,9.03
2019-05-22T13:31:13.495Z,10.18
2019-05-22T13:33:42.813Z,12.03
2019-05-22T13:36:11.218Z,11.68
2019-05-22T13:38:39.257Z,11.85
2019-05-22T13:41:07.209Z,9.85
2019-05-22T13:43:35.203Z,9.38
2019-05-22T13:46:02.733Z,11.85
2019-05-22T13:48:30.264Z,9.50
2019-05-22T13:50:59.711Z,9.93
2019-05-22T13:53:27.970Z,8.93
2019-05-22T13:55:56.392Z,8.25
2019-05-22T13:58:28.646Z,9.33
2019-05-22T14:00:56.474Z,9.60
2019-05-22T14:03:24.593Z,8.63
2019-05-22T14:05:52.570Z,7.72
2019-05-22T14:08:21.378Z,8.85
2019-05-22T14:10:50.484Z,8.45
2019-05-22T14:13:17.894Z,8.78
2019-05-22T14:15:52.306Z,8.40
2019-05-22T14:18:14.381Z,9.18
2019-05-22T14:20:42.154Z,7.95
2019-05-22T14:23:10.084Z,9.50
2019-05-22T14:25:37.868Z,8.58
2019-05-22T14:28:06.838Z,7.62
2019-05-22T14:30:34.366Z,8.10
2019-05-22T14:33:04.725Z,8.33
2019-05-22T14:35:47.469Z,8.18
2019-05-22T14:38:05.590Z,8.53
2019-05-22T14:40:33.422Z,14.15
2019-05-22T14:43:01.337Z,20.85
2019-05-22T14:45:29.439Z,11.65
2019-05-22T14:47:57.246Z,8.00
2019-05-22T14:50:25.358Z,11.15
2019-05-22T14:52:53.320Z,9.70
2019-05-22T14:55:21.321Z,8.40
2019-05-22T14:57:49.009Z,7.08
2019-05-22T15:00:19.345Z,7.65
2019-05-22T15:02:53.280Z,7.65
2019-05-22T15:05:16.923Z,7.20
2019-05-22T15:08:04.736Z,7.75
2019-05-22T15:10:32.430Z,8.10
2019-05-22T15:13:00.368Z,7.35
2019-05-22T15:15:27.837Z,6.72
2019-05-22T15:17:55.496Z,7.20
2019-05-22T15:20:36.632Z,10.18
2019-05-22T15:23:05.973Z,8.80
2019-05-22T15:25:33.967Z,7.50
2019-05-22T15:28:01.463Z,7.85
2019-05-22T15:30:29.247Z,6.80
2019-05-22T15:32:56.745Z,8.48
2019-05-22T15:35:24.242Z,7.80
2019-05-22T15:37:53.390Z,7.33
2019-05-22T15:40:22.482Z,7.20
2019-05-22T15:42:49.935Z,6.90
2019-05-22T15:45:20.414Z,6.97
2019-05-22T15:47:55.250Z,7.50
2019-05-22T15:50:26.641Z,9.58
2019-05-22T15:52:56.205Z,7.95
2019-05-22T15:55:25.070Z,7.72
2019-05-22T15:57:56.533Z,6.75
2019-05-22T16:00:26.541Z,6.72
2019-05-22T16:02:54.691Z,6.65
2019-05-22T16:05:22.323Z,6.65
2019-05-22T16:07:51.225Z,6.58
2019-05-22T16:10:22.104Z,7.47
2019-05-22T16:12:49.894Z,9.15
2019-05-22T16:15:21.026Z,6.80
2019-05-22T16:17:49.516Z,7.03
2019-05-22T16:20:21.406Z,7.87
2019-05-22T16:22:49.359Z,7.17
2019-05-22T16:25:16.838Z,7.60
2019-05-22T16:27:45.473Z,7.50
2019-05-22T16:30:13.859Z,7.85
2019-05-22T16:32:41.427Z,6.90
2019-05-22T16:35:09.770Z,7.20
2019-05-22T16:37:37.646Z,7.87
2019-05-22T16:40:05.901Z,9.38
2019-05-22T16:42:35.014Z,7.50
2019-05-22T16:45:03.651Z,6.28
2019-05-22T16:47:33.656Z,6.12
2019-05-22T16:50:01.920Z,7.67
2019-05-22T16:52:29.426Z,6.30
2019-05-22T16:54:57.802Z,6.58
2019-05-22T16:57:25.957Z,5.47
2019-05-22T16:59:54.473Z,5.90
2019-05-22T17:02:23.161Z,6.00
2019-05-22T17:04:50.708Z,6.45
2019-05-22T17:07:19.444Z,6.90
2019-05-22T17:09:49.079Z,5.45
2019-05-22T17:12:17.579Z,5.90
2019-05-22T17:14:48.390Z,6.40
2019-05-22T17:17:18.378Z,7.15
2019-05-22T17:19:45.917Z,5.65
2019-05-22T17:22:14.063Z,7.47
2019-05-22T17:24:42.333Z,6.78
2019-05-22T17:27:11.280Z,6.47
2019-05-22T17:29:38.900Z,6.70
2019-05-22T17:32:07.685Z,6.72
2019-05-22T17:34:36.711Z,6.72
2019-05-22T17:37:10.834Z,6.62
2019-05-22T17:39:41.029Z,6.80
2019-05-22T17:42:10.493Z,7.22
2019-05-22T17:44:38.651Z,7.15
2019-05-22T17:47:08.142Z,6.83
2019-05-22T17:49:35.736Z,7.08
2019-05-22T17:52:04.895Z,6.80
2019-05-22T17:54:33.365Z,7.05
2019-05-22T17:57:01.645Z,7.25
2019-05-22T17:59:29.237Z,7.70
2019-05-22T18:01:57.758Z,7.58
2019-05-22T18:04:25.554Z,6.80
2019-05-22T18:06:53.246Z,7.53
2019-05-22T18:09:20.788Z,7.47
2019-05-22T18:11:49.648Z,8.15
2019-05-22T18:14:17.223Z,9.00
2019-05-22T18:16:45.502Z,8.25
2019-05-22T18:19:13.206Z,8.88
2019-05-22T18:21:42.136Z,10.58
2019-05-22T18:24:10.536Z,9.08
2019-05-22T18:26:38.121Z,9.08
2019-05-22T18:29:05.697Z,27.00
2019-05-22T18:31:33.445Z,8.80
2019-05-22T18:34:01.184Z,9.20
2019-05-22T18:36:28.556Z,10.43
2019-05-22T18:38:56.162Z,10.13
2019-05-22T18:41:24.203Z,10.63
2019-05-22T18:43:53.137Z,10.18
2019-05-22T18:46:21.110Z,12.10
2019-05-22T18:48:48.865Z,9.98
2019-05-22T18:51:16.920Z,9.75
2019-05-22T18:53:44.978Z,10.48
2019-05-22T18:56:13.579Z,9.38
2019-05-22T18:58:41.299Z,10.20
2019-05-22T19:01:09.328Z,10.43
2019-05-22T19:03:36.861Z,10.50
2019-05-22T19:06:05.237Z,13.13
2019-05-22T19:08:32.523Z,13.30
2019-05-22T19:11:00.531Z,10.63
2019-05-22T19:13:28.881Z,10.88
2019-05-22T19:15:56.262Z,10.90
2019-05-22T19:18:23.670Z,11.88
2019-05-22T19:20:51.748Z,11.25
2019-05-22T19:23:19.274Z,11.55
2019-05-22T19:25:46.713Z,11.25
2019-05-22T19:28:14.072Z,11.08
2019-05-22T19:30:41.916Z,12.05
2019-05-22T19:33:09.518Z,11.03
2019-05-22T19:35:37.251Z,13.55
2019-05-22T19:38:05.505Z,11.75
2019-05-22T19:40:34.946Z,11.38
2019-05-22T19:43:03.954Z,11.40
2019-05-22T19:45:32.035Z,12.10
2019-05-22T19:48:00.007Z,13.43
2019-05-22T19:50:28.593Z,12.50
2019-05-22T19:52:57.018Z,12.18
2019-05-22T19:55:27.009Z,12.15
2019-05-22T19:57:54.769Z,13.93
2019-05-22T20:00:22.317Z,13.48
2019-05-22T20:02:50.827Z,13.22
2019-05-22T20:05:20.202Z,14.47
2019-05-22T20:07:48.272Z,14.60
2019-05-22T20:10:16.136Z,14.10
2019-05-22T20:12:43.916Z,14.28
2019-05-22T20:15:12.070Z,14.55
2019-05-22T20:17:39.572Z,15.45
2019-05-22T20:20:08.225Z,15.23
2019-05-22T20:22:36.092Z,13.60
2019-05-22T20:25:05.146Z,14.95
2019-05-22T20:27:33.016Z,16.82
2019-05-22T20:30:01.107Z,16.48
2019-05-22T20:32:29.378Z,15.00
2019-05-22T20:34:57.016Z,16.60
2019-05-22T20:37:25.597Z,14.87
2019-05-22T20:39:53.622Z,15.45
2019-05-22T20:42:21.204Z,17.95
2019-05-22T20:44:49.312Z,15.53
2019-05-22T20:47:21.829Z,16.52
2019-05-22T20:49:51.178Z,18.05
2019-05-22T20:52:19.898Z,20.23
2019-05-22T20:54:47.786Z,16.97
2019-05-22T20:57:15.506Z,17.30
2019-05-22T20:59:43.463Z,17.75
2019-05-22T21:02:11.946Z,15.05
2019-05-22T21:04:40.316Z,16.82
2019-05-22T21:07:09.664Z,16.17
2019-05-22T21:09:37.811Z,17.40
2019-05-22T21:12:06.283Z,18.10
2019-05-22T21:14:34.037Z,17.73
2019-05-22T21:17:02.208Z,17.80
2019-05-22T21:19:31.115Z,17.62
2019-05-22T21:21:58.873Z,19.02
2019-05-22T21:24:27.100Z,14.93
2019-05-22T21:26:54.568Z,14.68
2019-05-22T21:29:23.651Z,16.10
2019-05-22T21:31:51.430Z,14.98
2019-05-22T21:34:19.755Z,18.10
2019-05-22T21:36:47.110Z,17.42
2019-05-22T21:39:16.590Z,17.67
2019-05-22T21:41:44.283Z,16.57
2019-05-22T21:44:12.684Z,15.08
2019-05-22T21:46:40.812Z,14.85
2019-05-22T21:49:09.581Z,16.73
2019-05-22T21:51:36.945Z,14.38
2019-05-22T21:54:05.735Z,14.07
2019-05-22T21:56:34.158Z,14.25
2019-05-22T21:59:02.807Z,14.68
2019-05-22T22:01:39.412Z,13.78
2019-05-22T22:04:29.216Z,15.18
2019-05-22T22:06:58.405Z,13.98
2019-05-22T22:09:26.563Z,13.53
2019-05-22T22:11:54.718Z,12.82
2019-05-22T22:14:22.839Z,13.50
2019-05-22T22:16:50.856Z,13.20
2019-05-22T22:19:20.060Z,13.48
2019-05-22T22:21:48.021Z,12.75
2019-05-22T22:24:15.570Z,15.03
2019-05-22T22:26:44.000Z,12.88
2019-05-22T22:29:11.729Z,14.07
2019-05-22T22:31:39.194Z,14.95
2019-05-22T22:34:18.978Z,16.25
2019-05-22T22:36:48.900Z,14.98
2019-05-22T22:39:18.328Z,18.52
2019-05-22T22:41:46.957Z,18.82
2019-05-22T22:44:15.540Z,16.17
2019-05-22T22:46:57.854Z,17.00
2019-05-22T22:49:27.504Z,16.95
2019-05-22T22:51:55.011Z,17.12
2019-05-22T22:54:22.732Z,17.05
2019-05-22T22:56:50.702Z,15.13
2019-05-22T22:59:18.466Z,16.20
2019-05-22T23:01:49.683Z,18.90
2019-05-22T23:04:18.687Z,17.37
2019-05-22T23:06:47.649Z,15.28
2019-05-22T23:09:16.937Z,16.05
2019-05-22T23:11:45.088Z,15.63
2019-05-22T23:14:15.489Z,16.93
2019-05-22T23:16:43.986Z,16.45
2019-05-22T23:19:40.204Z,17.10
2019-05-22T23:22:11.814Z,14.45
2019-05-22T23:24:40.118Z,16.52
2019-05-22T23:27:08.777Z,18.57
2019-05-22T23:29:38.028Z,18.12
2019-05-22T23:32:08.084Z,17.90
2019-05-22T23:34:36.232Z,18.90
2019-05-22T23:37:06.236Z,21.57
2019-05-22T23:39:35.670Z,21.37
2019-05-22T23:42:09.881Z,22.05
2019-05-22T23:44:37.711Z,22.67
2019-05-22T23:47:07.187Z,21.45
2019-05-22T23:49:35.331Z,22.37
2019-05-22T23:52:03.767Z,21.12
2019-05-22T23:54:31.668Z,19.55
2019-05-22T23:57:01.402Z,21.50
2019-05-22T23:59:31.729Z,21.60
